Time;durP1;ratioP1;P1;durP2;ratioP2;P2;SDS_P1;SDS_P2;PMS_P1;PMS_P2;Temp;Humidity;BMP_temperature;BMP_pressure;BME280_temperature;BME280_humidity;BME280_pressure;Samples;Min_cycle;Max_cycle;Signal;HPM_P1;HPM_P2
2021/11/30 00:01:59;;;;;;;2.20;1.30;;;;;;;;;;4975158;28;20031;-57
2021/11/30 00:04:29;;;;;;;2.07;1.20;;;;;;;;;;4975165;28;20030;-58
2021/11/30 00:06:57;;;;;;;1.30;0.90;;;;;;;;;;4970630;28;20027;-58
2021/11/30 00:12:01;;;;;;;2.03;1.40;;;;;;;;;;4950780;29;20886;-58
2021/11/30 00:14:28;;;;;;;2.43;1.80;;;;;;;;;;4950326;28;20027;-58
2021/11/30 00:16:57;;;;;;;3.60;1.83;;;;;;;;;;4958929;28;20043;-58
2021/11/30 00:19:24;;;;;;;2.93;2.10;;;;;;;;;;4955676;28;20047;-58
2021/11/30 00:21:51;;;;;;;3.10;2.00;;;;;;;;;;4956004;29;20035;-58
2021/11/30 00:24:18;;;;;;;2.63;1.60;;;;;;;;;;4955760;28;20028;-58
2021/11/30 00:26:45;;;;;;;3.70;2.10;;;;;;;;;;4955846;29;20367;-57
2021/11/30 00:29:12;;;;;;;2.53;1.43;;;;;;;;;;4952150;28;20102;-58
2021/11/30 00:31:38;;;;;;;2.50;1.43;;;;;;;;;;4966520;28;20039;-58
2021/11/30 00:34:06;;;;;;;3.37;1.47;;;;;;;;;;4950533;29;20039;-57
2021/11/30 00:36:33;;;;;;;8.97;1.63;;;;;;;;;;4950372;29;20053;-58
2021/11/30 00:39:00;;;;;;;1.77;1.13;;;;;;;;;;4953482;28;20035;-57
2021/11/30 00:41:27;;;;;;;2.73;1.30;;;;;;;;;;4955687;29;20023;-57
2021/11/30 00:43:55;;;;;;;1.57;0.90;;;;;;;;;;4955314;28;20046;-57
2021/11/30 00:46:33;;;;;;;1.53;0.93;;;;;;;;;;4965360;28;20058;-57
2021/11/30 00:49:00;;;;;;;3.23;1.10;;;;;;;;;;4974313;28;20159;-57
2021/11/30 00:51:27;;;;;;;2.77;1.30;;;;;;;;;;4970391;28;20026;-57
2021/11/30 00:53:54;;;;;;;2.37;1.47;;;;;;;;;;4969548;28;20754;-57
2021/11/30 00:56:21;;;;;;;3.83;1.83;;;;;;;;;;4969489;28;20019;-57
2021/11/30 00:58:48;;;;;;;5.03;1.23;;;;;;;;;;4955508;28;20031;-57
2021/11/30 01:01:15;;;;;;;2.63;1.40;;;;;;;;;;4958126;28;20031;-57
2021/11/30 01:03:41;;;;;;;2.33;1.20;;;;;;;;;;4974176;28;20039;-57
2021/11/30 01:06:09;;;;;;;1.10;0.90;;;;;;;;;;4973726;28;20023;-57
2021/11/30 01:08:35;;;;;;;3.13;1.20;;;;;;;;;;4964588;28;20023;-57
2021/11/30 01:11:03;;;;;;;1.93;1.03;;;;;;;;;;4955089;29;20029;-58
2021/11/30 01:13:32;;;;;;;1.63;1.00;;;;;;;;;;4952537;28;20533;-57
2021/11/30 01:15:59;;;;;;;3.13;0.90;;;;;;;;;;4949300;28;20059;-58
2021/11/30 01:18:25;;;;;;;1.60;1.00;;;;;;;;;;4949679;28;20037;-58
2021/11/30 01:20:52;;;;;;;1.93;0.83;;;;;;;;;;4949644;28;20035;-57
2021/11/30 01:23:20;;;;;;;1.97;1.03;;;;;;;;;;4959239;28;20405;-59
2021/11/30 01:25:46;;;;;;;1.83;1.17;;;;;;;;;;4974234;28;20053;-57
2021/11/30 01:28:13;;;;;;;2.53;1.40;;;;;;;;;;4972506;28;20093;-58
2021/11/30 01:30:40;;;;;;;4.67;2.07;;;;;;;;;;4954510;28;20042;-57
2021/11/30 01:33:07;;;;;;;4.57;1.63;;;;;;;;;;4964301;28;20026;-57
2021/11/30 01:35:34;;;;;;;1.73;1.30;;;;;;;;;;4970731;28;20027;-57
2021/11/30 01:38:01;;;;;;;1.90;1.00;;;;;;;;;;4961250;28;20054;-58
2021/11/30 01:40:28;;;;;;;1.63;1.00;;;;;;;;;;4949175;28;20146;-57
2021/11/30 01:42:58;;;;;;;2.43;1.27;;;;;;;;;;4949493;29;20043;-57
2021/11/30 01:45:43;;;;;;;4.07;1.20;;;;;;;;;;4951631;29;20035;-57
2021/11/30 01:49:12;;;;;;;2.90;1.45;;;;;;;;;;4955508;28;20097;-57
2021/11/30 01:50:58;;;;;;;5.60;1.47;;;;;;;;;;4954148;29;20035;-58
2021/11/30 01:53:25;;;;;;;2.00;1.43;;;;;;;;;;4953941;28;20057;-57
2021/11/30 01:55:52;;;;;;;2.83;1.60;;;;;;;;;;4954320;28;20521;-57
2021/11/30 01:58:19;;;;;;;1.83;1.30;;;;;;;;;;4950188;28;20031;-57
2021/11/30 02:00:47;;;;;;;2.73;1.00;;;;;;;;;;4949060;29;20027;-57
2021/11/30 02:03:13;;;;;;;2.00;1.10;;;;;;;;;;4949934;28;20798;-57
2021/11/30 02:05:41;;;;;;;2.80;1.03;;;;;;;;;;4949566;28;20098;-57
2021/11/30 02:08:09;;;;;;;3.63;1.00;;;;;;;;;;4952282;28;20055;-57
2021/11/30 02:10:36;;;;;;;2.70;1.00;;;;;;;;;;4954069;29;20031;-57
2021/11/30 02:13:03;;;;;;;1.47;0.87;;;;;;;;;;4954145;28;20038;-57
2021/11/30 02:15:32;;;;;;;2.53;1.43;;;;;;;;;;4953515;28;20032;-57
2021/11/30 02:18:02;;;;;;;2.30;1.20;;;;;;;;;;4953986;28;20043;-57
2021/11/30 02:20:31;;;;;;;2.33;1.10;;;;;;;;;;4949904;28;20053;-58
2021/11/30 02:22:58;;;;;;;4.67;1.80;;;;;;;;;;4948400;28;20043;-58
2021/11/30 02:25:25;;;;;;;3.33;1.10;;;;;;;;;;4948824;29;20031;-57
2021/11/30 02:27:52;;;;;;;2.43;1.10;;;;;;;;;;4948790;29;20051;-57
2021/11/30 02:30:20;;;;;;;1.93;1.10;;;;;;;;;;4952063;28;20058;-58
2021/11/30 02:32:47;;;;;;;1.43;1.00;;;;;;;;;;4966373;28;20363;-57
2021/11/30 02:35:15;;;;;;;1.87;0.93;;;;;;;;;;4966114;28;20422;-57
2021/11/30 02:37:49;;;;;;;3.27;1.00;;;;;;;;;;4953682;28;20043;-57
2021/11/30 02:40:17;;;;;;;1.52;1.00;;;;;;;;;;4953914;29;20372;-57
2021/11/30 02:42:44;;;;;;;1.77;0.77;;;;;;;;;;4949821;29;20098;-57
2021/11/30 02:45:10;;;;;;;1.93;1.10;;;;;;;;;;4948821;28;20039;-57
2021/11/30 02:47:37;;;;;;;4.97;1.40;;;;;;;;;;4949592;28;20762;-57
2021/11/30 02:50:04;;;;;;;2.20;1.10;;;;;;;;;;4948674;28;20046;-57
2021/11/30 02:52:31;;;;;;;5.17;1.40;;;;;;;;;;4951377;28;20106;-57
2021/11/30 02:54:59;;;;;;;2.90;1.30;;;;;;;;;;4953925;29;20467;-58
2021/11/30 02:57:26;;;;;;;4.33;1.50;;;;;;;;;;4953756;29;20479;-57
2021/11/30 02:59:54;;;;;;;5.53;1.60;;;;;;;;;;4954776;28;20479;-57
2021/11/30 03:02:22;;;;;;;4.77;1.80;;;;;;;;;;4953556;29;20102;-58
2021/11/30 03:04:50;;;;;;;7.37;2.13;;;;;;;;;;4950030;28;20521;-57
2021/11/30 03:07:22;;;;;;;4.60;2.17;;;;;;;;;;4955204;28;20031;-58
2021/11/30 03:09:48;;;;;;;2.50;1.40;;;;;;;;;;4967731;28;20390;-57
2021/11/30 03:12:15;;;;;;;6.53;1.70;;;;;;;;;;4967809;28;20509;-57
2021/11/30 03:14:42;;;;;;;6.93;1.70;;;;;;;;;;4957289;28;20385;-57
2021/11/30 03:17:09;;;;;;;4.90;1.60;;;;;;;;;;4953611;28;20030;-57
2021/11/30 03:19:36;;;;;;;3.70;1.70;;;;;;;;;;4953616;28;20016;-57
2021/11/30 03:22:04;;;;;;;6.27;2.10;;;;;;;;;;4953428;29;20082;-58
2021/11/30 03:24:31;;;;;;;4.97;2.13;;;;;;;;;;4953475;28;20410;-57
2021/11/30 03:26:58;;;;;;;4.63;1.97;;;;;;;;;;4950300;28;20031;-57
2021/11/30 03:29:25;;;;;;;5.10;2.27;;;;;;;;;;4965777;28;20083;-57
2021/11/30 03:32:02;;;;;;;6.50;2.27;;;;;;;;;;4971126;28;20047;-57
2021/11/30 03:34:29;;;;;;;4.03;1.93;;;;;;;;;;4970660;28;20042;-57
2021/11/30 03:36:57;;;;;;;11.73;3.07;;;;;;;;;;4973540;28;20031;-57
2021/11/30 03:39:25;;;;;;;4.03;2.03;;;;;;;;;;4964635;28;20117;-57
2021/11/30 03:41:52;;;;;;;5.70;2.27;;;;;;;;;;4956464;29;20085;-57
2021/11/30 03:44:20;;;;;;;3.80;2.07;;;;;;;;;;4956509;28;20027;-57
2021/11/30 03:46:47;;;;;;;5.40;2.10;;;;;;;;;;4956888;29;20078;-57
2021/11/30 03:49:14;;;;;;;9.33;2.30;;;;;;;;;;4953345;28;20557;-57
2021/11/30 03:51:41;;;;;;;5.43;2.43;;;;;;;;;;4950975;29;20027;-57
2021/11/30 03:54:09;;;;;;;5.87;2.63;;;;;;;;;;4959341;28;20042;-57
2021/11/30 03:56:37;;;;;;;7.60;2.83;;;;;;;;;;4970170;28;20041;-57
2021/11/30 03:59:04;;;;;;;9.63;2.40;;;;;;;;;;4961147;28;20114;-57
2021/11/30 04:01:31;;;;;;;6.57;2.67;;;;;;;;;;4956521;29;20094;-57
2021/11/30 04:03:58;;;;;;;4.30;2.03;;;;;;;;;;4956252;28;20031;-57
2021/11/30 04:06:25;;;;;;;9.13;2.80;;;;;;;;;;4956791;28;20475;-57
2021/11/30 04:08:52;;;;;;;4.40;2.17;;;;;;;;;;4962631;28;20027;-57
2021/11/30 04:11:23;;;;;;;9.87;2.50;;;;;;;;;;4972803;28;20397;-57
2021/11/30 04:13:50;;;;;;;7.27;3.00;;;;;;;;;;4969772;28;20043;-57
2021/11/30 04:16:18;;;;;;;8.37;3.77;;;;;;;;;;4970046;28;20109;-57
2021/11/30 04:18:45;;;;;;;9.47;2.90;;;;;;;;;;4969524;28;20053;-57
2021/11/30 04:21:12;;;;;;;10.10;2.80;;;;;;;;;;4971962;28;20019;-57
2021/11/30 04:23:38;;;;;;;5.80;2.57;;;;;;;;;;4974683;28;20474;-57
2021/11/30 04:26:05;;;;;;;6.00;2.80;;;;;;;;;;4975072;28;20038;-57
2021/11/30 04:28:32;;;;;;;7.70;2.53;;;;;;;;;;4967434;28;20038;-57
2021/11/30 04:30:59;;;;;;;11.83;2.90;;;;;;;;;;4955813;29;20106;-57
2021/11/30 04:33:26;;;;;;;5.47;2.43;;;;;;;;;;4952897;28;20066;-58
2021/11/30 04:35:53;;;;;;;6.10;3.00;;;;;;;;;;4950513;29;20106;-57
2021/11/30 04:38:20;;;;;;;11.23;3.80;;;;;;;;;;4952136;28;20038;-57
2021/11/30 04:40:47;;;;;;;10.47;4.83;;;;;;;;;;4958401;28;20031;-57
2021/11/30 04:43:14;;;;;;;6.93;3.40;;;;;;;;;;4952459;28;20090;-58
2021/11/30 04:45:55;;;;;;;7.30;2.67;;;;;;;;;;4955669;29;20027;-57
2021/11/30 04:48:24;;;;;;;6.60;3.03;;;;;;;;;;4955357;28;20119;-57
2021/11/30 04:51:02;;;;;;;9.83;2.50;;;;;;;;;;4955331;28;20542;-57
2021/11/30 04:53:31;;;;;;;4.43;2.37;;;;;;;;;;4955411;28;20097;-57
2021/11/30 04:55:57;;;;;;;9.67;2.77;;;;;;;;;;4952182;28;20027;-57
2021/11/30 04:58:24;;;;;;;9.37;2.57;;;;;;;;;;4962172;28;20035;-57
2021/11/30 05:00:51;;;;;;;5.20;2.30;;;;;;;;;;4950731;29;20023;-57
2021/11/30 05:03:19;;;;;;;15.60;3.00;;;;;;;;;;4950027;28;20576;-57
2021/11/30 05:05:46;;;;;;;4.87;2.53;;;;;;;;;;4952923;29;20487;-57
2021/11/30 05:08:13;;;;;;;8.87;3.13;;;;;;;;;;4956395;28;20038;-57
2021/11/30 05:10:39;;;;;;;5.20;2.80;;;;;;;;;;4974561;28;20019;-58
2021/11/30 05:13:06;;;;;;;6.07;3.03;;;;;;;;;;4960098;28;20034;-57
2021/11/30 05:15:33;;;;;;;4.87;2.53;;;;;;;;;;4955187;29;20087;-57
2021/11/30 05:18:00;;;;;;;4.73;2.60;;;;;;;;;;4951913;28;20498;-59
2021/11/30 05:20:27;;;;;;;6.33;2.63;;;;;;;;;;4950036;28;20023;-58
2021/11/30 05:22:54;;;;;;;4.60;2.80;;;;;;;;;;4950026;29;20439;-58
2021/11/30 05:25:22;;;;;;;6.57;2.70;;;;;;;;;;4958597;28;20063;-58
2021/11/30 05:27:49;;;;;;;5.90;2.00;;;;;;;;;;4965070;28;20027;-58
2021/11/30 05:30:18;;;;;;;10.13;3.00;;;;;;;;;;4954936;28;20039;-58
2021/11/30 05:32:45;;;;;;;4.97;2.97;;;;;;;;;;4954658;29;20015;-58
2021/11/30 05:35:12;;;;;;;4.47;2.37;;;;;;;;;;4954976;29;20027;-59
2021/11/30 05:37:39;;;;;;;6.13;2.23;;;;;;;;;;4954890;29;20471;-57
2021/11/30 05:40:06;;;;;;;3.33;1.83;;;;;;;;;;4967389;28;20115;-58
2021/11/30 05:42:33;;;;;;;6.27;2.13;;;;;;;;;;4968685;28;20430;-58
2021/11/30 05:45:00;;;;;;;4.47;2.40;;;;;;;;;;4953153;28;20038;-57
2021/11/30 05:47:26;;;;;;;6.00;2.60;;;;;;;;;;4949725;29;20478;-57
2021/11/30 05:49:53;;;;;;;3.37;1.90;;;;;;;;;;4950993;28;20023;-56
2021/11/30 05:52:20;;;;;;;3.70;2.10;;;;;;;;;;4954168;29;20028;-56
2021/11/30 05:54:47;;;;;;;3.83;2.40;;;;;;;;;;4954437;28;20031;-57
2021/11/30 05:57:18;;;;;;;5.63;1.87;;;;;;;;;;4954544;29;20085;-56
2021/11/30 05:59:45;;;;;;;5.83;2.30;;;;;;;;;;4954649;28;20035;-57
2021/11/30 06:02:13;;;;;;;3.93;1.90;;;;;;;;;;4952004;29;20054;-56
2021/11/30 06:04:39;;;;;;;6.37;2.17;;;;;;;;;;4950583;28;20078;-57
2021/11/30 06:07:06;;;;;;;2.80;1.70;;;;;;;;;;4949500;29;20509;-57
2021/11/30 06:09:34;;;;;;;10.13;3.20;;;;;;;;;;4967307;28;20027;-57
2021/11/30 06:12:01;;;;;;;3.43;1.73;;;;;;;;;;4970494;28;20026;-56
2021/11/30 06:14:28;;;;;;;5.33;2.33;;;;;;;;;;4965839;28;20664;-57
2021/11/30 06:16:55;;;;;;;3.83;2.40;;;;;;;;;;4954448;29;20027;-56
2021/11/30 06:19:22;;;;;;;6.93;1.60;;;;;;;;;;4953948;28;20042;-57
2021/11/30 06:21:49;;;;;;;2.87;1.73;;;;;;;;;;4954514;28;20063;-57
2021/11/30 06:24:17;;;;;;;5.90;2.10;;;;;;;;;;4970897;28;20561;-56
2021/11/30 06:26:44;;;;;;;2.83;1.53;;;;;;;;;;4968535;28;20279;-57
2021/11/30 06:29:11;;;;;;;4.50;1.93;;;;;;;;;;4965457;28;20733;-57
2021/11/30 06:31:37;;;;;;;4.37;1.80;;;;;;;;;;4968410;28;20512;-57
2021/11/30 06:34:07;;;;;;;3.33;1.70;;;;;;;;;;4963719;28;20027;-58
2021/11/30 06:36:34;;;;;;;2.47;1.53;;;;;;;;;;4972594;28;20744;-58
2021/11/30 06:39:00;;;;;;;1.93;1.30;;;;;;;;;;4973127;28;20061;-58
2021/11/30 06:41:27;;;;;;;3.33;1.83;;;;;;;;;;4973636;28;20296;-57
2021/11/30 06:43:54;;;;;;;2.73;1.50;;;;;;;;;;4973397;28;20030;-56
2021/11/30 06:46:21;;;;;;;3.63;1.63;;;;;;;;;;4971446;28;20034;-57
2021/11/30 06:48:48;;;;;;;2.53;1.47;;;;;;;;;;4967883;28;20109;-58
2021/11/30 06:51:16;;;;;;;2.73;1.67;;;;;;;;;;4968133;28;20027;-57
2021/11/30 06:53:42;;;;;;;4.17;1.60;;;;;;;;;;4968433;28;20034;-57
2021/11/30 06:56:10;;;;;;;2.83;1.77;;;;;;;;;;4969443;28;20264;-57
2021/11/30 06:58:37;;;;;;;3.37;1.90;;;;;;;;;;4973151;28;20038;-57
2021/11/30 07:01:04;;;;;;;4.57;1.43;;;;;;;;;;4972704;28;20348;-57
2021/11/30 07:03:31;;;;;;;3.10;1.67;;;;;;;;;;4975788;28;20370;-58
2021/11/30 07:06:06;;;;;;;2.60;1.50;;;;;;;;;;4975980;28;20481;-57
2021/11/30 07:11:21;;;;;;;3.37;1.43;;;;;;;;;;4971789;28;20122;-57
2021/11/30 07:13:48;;;;;;;3.67;1.80;;;;;;;;;;4971312;28;20344;-56
2021/11/30 07:16:15;;;;;;;3.93;1.80;;;;;;;;;;4971793;28;20304;-57
2021/11/30 07:18:42;;;;;;;4.87;1.70;;;;;;;;;;4965986;28;20836;-56
2021/11/30 07:21:08;;;;;;;1.63;1.00;;;;;;;;;;4956938;28;20357;-56
2021/11/30 07:23:35;;;;;;;3.53;1.70;;;;;;;;;;4958012;28;20300;-57
2021/11/30 07:26:02;;;;;;;2.50;1.30;;;;;;;;;;4957384;29;20752;-56
2021/11/30 07:28:30;;;;;;;2.97;1.30;;;;;;;;;;4956829;28;20364;-56
2021/11/30 07:30:59;;;;;;;4.23;1.67;;;;;;;;;;4954554;28;20621;-57
2021/11/30 07:33:25;;;;;;;3.53;1.60;;;;;;;;;;4970265;28;20664;-57
2021/11/30 07:35:52;;;;;;;3.40;1.63;;;;;;;;;;4970949;28;20269;-56
2021/11/30 07:38:19;;;;;;;4.90;1.47;;;;;;;;;;4971190;28;20272;-56
2021/11/30 07:40:46;;;;;;;3.50;1.40;;;;;;;;;;4960346;28;20277;-56
2021/11/30 07:43:13;;;;;;;2.60;1.47;;;;;;;;;;4956346;28;20369;-58
2021/11/30 07:45:39;;;;;;;2.13;1.10;;;;;;;;;;4957884;28;20269;-56
2021/11/30 07:48:06;;;;;;;3.23;1.63;;;;;;;;;;4967409;28;20736;-57
2021/11/30 07:50:33;;;;;;;2.63;1.20;;;;;;;;;;4956888;28;20274;-56
2021/11/30 07:52:59;;;;;;;4.50;1.57;;;;;;;;;;4954696;28;20359;-56
2021/11/30 07:55:26;;;;;;;3.20;1.37;;;;;;;;;;4951672;29;20297;-56
2021/11/30 07:57:53;;;;;;;7.07;1.77;;;;;;;;;;4951436;28;20257;-56
2021/11/30 08:00:20;;;;;;;2.67;1.37;;;;;;;;;;4951128;28;20278;-57
2021/11/30 08:02:47;;;;;;;2.07;1.10;;;;;;;;;;4955591;28;20386;-56
2021/11/30 08:05:15;;;;;;;4.03;1.10;;;;;;;;;;4960964;28;20281;-56
2021/11/30 08:07:42;;;;;;;3.33;1.30;;;;;;;;;;4956474;28;20269;-54
2021/11/30 08:10:14;;;;;;;2.50;1.40;;;;;;;;;;4965937;28;20269;-54
2021/11/30 08:12:41;;;;;;;2.93;1.10;;;;;;;;;;4975312;28;20315;-55
2021/11/30 08:15:08;;;;;;;3.23;1.50;;;;;;;;;;4953460;28;20621;-54
2021/11/30 08:17:34;;;;;;;2.27;1.23;;;;;;;;;;4951375;29;20948;-54
2021/11/30 08:20:02;;;;;;;2.30;1.10;;;;;;;;;;4968201;28;20307;-54
2021/11/30 08:22:28;;;;;;;2.77;1.20;;;;;;;;;;4970496;28;20299;-55
2021/11/30 08:24:55;;;;;;;4.73;1.57;;;;;;;;;;4953935;28;20269;-54
2021/11/30 08:27:22;;;;;;;2.50;1.20;;;;;;;;;;4956133;29;20313;-55
2021/11/30 08:29:50;;;;;;;3.53;1.40;;;;;;;;;;4967775;28;20276;-54
2021/11/30 08:32:22;;;;;;;3.03;1.47;;;;;;;;;;4975224;28;20363;-54
2021/11/30 08:34:51;;;;;;;2.43;1.10;;;;;;;;;;4961687;28;20306;-54
2021/11/30 08:37:18;;;;;;;2.77;1.33;;;;;;;;;;4966431;28;20752;-54
2021/11/30 08:39:48;;;;;;;4.50;1.20;;;;;;;;;;4967163;28;20756;-54
2021/11/30 08:42:15;;;;;;;2.67;1.37;;;;;;;;;;4969680;28;20767;-54
2021/11/30 08:44:42;;;;;;;1.80;1.07;;;;;;;;;;4969960;28;20280;-54
2021/11/30 08:47:10;;;;;;;3.10;1.73;;;;;;;;;;4971351;28;20249;-54
2021/11/30 08:49:37;;;;;;;2.10;1.37;;;;;;;;;;4971074;28;20602;-54
2021/11/30 08:52:05;;;;;;;2.50;1.37;;;;;;;;;;4955798;29;20684;-54
2021/11/30 08:54:32;;;;;;;2.60;1.40;;;;;;;;;;4969559;28;20313;-54
2021/11/30 08:56:59;;;;;;;4.27;1.93;;;;;;;;;;4974554;28;20680;-54
2021/11/30 08:59:26;;;;;;;3.30;1.73;;;;;;;;;;4972519;28;20284;-54
2021/11/30 09:01:53;;;;;;;2.27;1.30;;;;;;;;;;4969494;28;20703;-53
2021/11/30 09:04:20;;;;;;;4.47;2.17;;;;;;;;;;4969754;28;20328;-54
2021/11/30 09:06:47;;;;;;;3.33;1.70;;;;;;;;;;4956412;28;20285;-53
2021/11/30 09:09:15;;;;;;;2.67;1.70;;;;;;;;;;4951849;29;20733;-53
2021/11/30 09:11:42;;;;;;;3.33;1.90;;;;;;;;;;4972213;28;20327;-54
2021/11/30 09:14:09;;;;;;;2.50;1.70;;;;;;;;;;4963037;28;20586;-54
2021/11/30 09:16:37;;;;;;;2.93;1.53;;;;;;;;;;4955317;28;20292;-53
2021/11/30 09:19:04;;;;;;;3.07;1.57;;;;;;;;;;4956027;28;20278;-54
2021/11/30 09:21:31;;;;;;;3.73;1.60;;;;;;;;;;4963631;28;20949;-54
2021/11/30 09:23:58;;;;;;;2.30;1.40;;;;;;;;;;4969362;28;20289;-54
2021/11/30 09:26:25;;;;;;;2.87;1.50;;;;;;;;;;4968121;28;21076;-55
2021/11/30 09:28:52;;;;;;;2.83;1.40;;;;;;;;;;4969117;28;20268;-54
2021/11/30 09:31:19;;;;;;;2.07;1.20;;;;;;;;;;4970454;28;20632;-54
2021/11/30 09:33:46;;;;;;;4.50;1.50;;;;;;;;;;4973811;28;20280;-55
2021/11/30 09:36:13;;;;;;;2.17;1.17;;;;;;;;;;4973809;28;20268;-53
2021/11/30 09:38:41;;;;;;;1.73;1.30;;;;;;;;;;4973876;28;20279;-54
2021/11/30 09:41:08;;;;;;;2.20;1.27;;;;;;;;;;4960481;28;20626;-53
2021/11/30 09:43:38;;;;;;;2.70;1.37;;;;;;;;;;4961738;28;20315;-54
2021/11/30 09:46:05;;;;;;;1.93;1.20;;;;;;;;;;4968918;28;20355;-54
2021/11/30 09:48:32;;;;;;;2.47;1.30;;;;;;;;;;4968407;28;20785;-54
2021/11/30 09:51:00;;;;;;;1.27;0.90;;;;;;;;;;4964176;28;20297;-53
2021/11/30 09:53:28;;;;;;;2.73;1.23;;;;;;;;;;4964530;28;20272;-54
2021/11/30 09:55:55;;;;;;;1.80;1.10;;;;;;;;;;4973000;28;20281;-54
2021/11/30 09:58:23;;;;;;;2.13;1.07;;;;;;;;;;4973909;28;20372;-54
2021/11/30 10:00:51;;;;;;;3.40;1.20;;;;;;;;;;4973522;28;20261;-54
2021/11/30 10:03:19;;;;;;;2.00;1.00;;;;;;;;;;4973868;28;20327;-54
2021/11/30 10:05:46;;;;;;;1.87;1.00;;;;;;;;;;4971645;28;20323;-54
2021/11/30 10:08:30;;;;;;;1.50;1.00;;;;;;;;;;4968428;28;20261;-54
2021/11/30 10:10:57;;;;;;;3.60;1.27;;;;;;;;;;4968362;28;20669;-54
2021/11/30 10:13:24;;;;;;;2.40;0.90;;;;;;;;;;4961881;28;20703;-54
2021/11/30 10:15:53;;;;;;;1.17;0.77;;;;;;;;;;4962305;28;20269;-54
2021/11/30 10:18:23;;;;;;;1.87;0.90;;;;;;;;;;4973342;28;20269;-53
2021/11/30 10:20:51;;;;;;;2.27;1.00;;;;;;;;;;4971564;28;20269;-54
2021/11/30 10:23:18;;;;;;;2.20;1.20;;;;;;;;;;4954313;29;20293;-54
2021/11/30 10:25:48;;;;;;;1.60;1.07;;;;;;;;;;4954305;28;20309;-54
2021/11/30 10:28:19;;;;;;;1.60;0.93;;;;;;;;;;4951736;28;20277;-54
2021/11/30 10:30:47;;;;;;;1.57;1.00;;;;;;;;;;4949217;29;20289;-54
2021/11/30 10:33:16;;;;;;;1.23;0.80;;;;;;;;;;4948876;28;20269;-54
2021/11/30 10:35:44;;;;;;;2.40;0.83;;;;;;;;;;4949245;29;20278;-53
2021/11/30 10:38:11;;;;;;;3.70;1.10;;;;;;;;;;4953909;28;20748;-54
2021/11/30 10:40:40;;;;;;;2.57;1.10;;;;;;;;;;4965859;28;20272;-54
2021/11/30 10:43:09;;;;;;;1.90;1.00;;;;;;;;;;4976807;28;20388;-54
2021/11/30 10:45:39;;;;;;;1.50;0.93;;;;;;;;;;4968263;28;20265;-54
2021/11/30 10:48:08;;;;;;;1.73;0.90;;;;;;;;;;4957574;28;20324;-55
2021/11/30 10:50:36;;;;;;;1.93;1.20;;;;;;;;;;4955442;28;20282;-54
2021/11/30 10:53:13;;;;;;;1.10;0.63;;;;;;;;;;4964412;28;20269;-54
2021/11/30 10:55:40;;;;;;;1.60;1.00;;;;;;;;;;4971490;28;20268;-54
2021/11/30 10:58:08;;;;;;;1.73;1.10;;;;;;;;;;4952601;29;20253;-54
2021/11/30 11:00:35;;;;;;;1.73;0.97;;;;;;;;;;4954950;29;20261;-54
2021/11/30 11:03:06;;;;;;;1.20;0.83;;;;;;;;;;4957325;28;20316;-54
2021/11/30 11:05:34;;;;;;;1.23;0.80;;;;;;;;;;4957716;29;20671;-54
2021/11/30 11:08:01;;;;;;;2.23;0.90;;;;;;;;;;4959862;28;20277;-54
2021/11/30 11:10:28;;;;;;;2.30;1.27;;;;;;;;;;4976868;28;20805;-54
2021/11/30 11:12:55;;;;;;;2.10;1.10;;;;;;;;;;4973293;28;20630;-54
2021/11/30 11:15:40;;;;;;;2.57;1.10;;;;;;;;;;4971686;28;20253;-54
2021/11/30 11:18:31;;;;;;;1.83;0.95;;;;;;;;;;4969951;28;20326;-54
2021/11/30 11:21:17;;;;;;;1.63;0.97;;;;;;;;;;4942370;28;20122;-54
2021/11/30 11:23:46;;;;;;;2.10;0.77;;;;;;;;;;4964587;28;20292;-53
2021/11/30 11:26:15;;;;;;;1.60;0.87;;;;;;;;;;4976287;28;20275;-54
2021/11/30 11:28:42;;;;;;;1.30;0.77;;;;;;;;;;4976100;28;20330;-54
2021/11/30 11:31:09;;;;;;;4.53;1.20;;;;;;;;;;4976376;28;20822;-54
2021/11/30 11:33:36;;;;;;;1.27;0.73;;;;;;;;;;4976200;28;20265;-54
2021/11/30 11:36:05;;;;;;;2.03;1.10;;;;;;;;;;4971276;28;20263;-53
2021/11/30 11:38:32;;;;;;;1.50;1.00;;;;;;;;;;4964376;28;20309;-53
2021/11/30 11:41:00;;;;;;;1.23;0.90;;;;;;;;;;4952018;28;20277;-54
2021/11/30 11:43:27;;;;;;;6.73;1.07;;;;;;;;;;4957165;28;20795;-54
2021/11/30 11:45:54;;;;;;;3.10;0.93;;;;;;;;;;4975419;28;20620;-54
2021/11/30 11:48:26;;;;;;;1.70;1.10;;;;;;;;;;4972521;28;20328;-53
2021/11/30 11:51:03;;;;;;;1.67;1.00;;;;;;;;;;4956830;28;20297;-54
2021/11/30 11:53:33;;;;;;;2.57;0.90;;;;;;;;;;4962084;28;20270;-55
2021/11/30 11:56:18;;;;;;;3.00;0.87;;;;;;;;;;4975118;28;20265;-53
2021/11/30 11:58:46;;;;;;;3.08;0.98;;;;;;;;;;4970698;28;20315;-54
2021/11/30 12:01:19;;;;;;;2.00;1.00;;;;;;;;;;4970870;28;20042;-53
2021/11/30 12:03:57;;;;;;;1.70;0.80;;;;;;;;;;4970829;28;20295;-54
2021/11/30 12:06:26;;;;;;;2.43;1.10;;;;;;;;;;4971952;28;20268;-53
2021/11/30 12:09:10;;;;;;;1.27;0.70;;;;;;;;;;4975455;28;20283;-53
2021/11/30 12:11:41;;;;;;;2.07;0.93;;;;;;;;;;4975598;28;20260;-54
2021/11/30 12:14:12;;;;;;;2.00;0.93;;;;;;;;;;4973285;28;20265;-54
2021/11/30 12:17:06;;;;;;;8.00;1.30;;;;;;;;;;4975191;28;20273;-53
2021/11/30 12:19:34;;;;;;;3.27;1.20;;;;;;;;;;4942116;28;20280;-54
2021/11/30 12:22:01;;;;;;;1.53;0.90;;;;;;;;;;4969926;28;20303;-54
2021/11/30 12:24:33;;;;;;;2.37;1.40;;;;;;;;;;4970526;28;20826;-54
2021/11/30 12:27:00;;;;;;;1.87;0.90;;;;;;;;;;4961307;28;20633;-54
2021/11/30 12:29:35;;;;;;;4.30;2.07;;;;;;;;;;4953883;29;20260;-54
2021/11/30 12:32:13;;;;;;;2.53;1.55;;;;;;;;;;4966507;28;20356;-54
2021/11/30 12:34:45;;;;;;;4.63;1.63;;;;;;;;;;4975157;28;20081;-53
2021/11/30 12:37:15;;;;;;;5.10;1.30;;;;;;;;;;4975147;28;20272;-53
2021/11/30 12:39:57;;;;;;;3.50;1.67;;;;;;;;;;4958919;28;20280;-54
2021/11/30 12:42:25;;;;;;;1.63;0.93;;;;;;;;;;4952316;28;20328;-53
2021/11/30 12:44:54;;;;;;;5.80;1.63;;;;;;;;;;4969826;28;20261;-54
2021/11/30 12:47:22;;;;;;;3.80;1.60;;;;;;;;;;4969941;28;20271;-53
2021/11/30 12:49:49;;;;;;;2.80;1.40;;;;;;;;;;4969797;28;20648;-54
2021/11/30 12:52:16;;;;;;;2.27;1.17;;;;;;;;;;4973463;28;20651;-53
2021/11/30 12:54:53;;;;;;;4.83;1.53;;;;;;;;;;4975031;28;20601;-53
2021/11/30 12:57:31;;;;;;;2.60;1.40;;;;;;;;;;4972637;28;20273;-53
2021/11/30 12:59:58;;;;;;;3.07;1.43;;;;;;;;;;4955248;28;20320;-54
2021/11/30 13:02:27;;;;;;;4.53;1.60;;;;;;;;;;4954808;28;20316;-53
2021/11/30 13:05:09;;;;;;;2.57;1.30;;;;;;;;;;4950379;28;20281;-54
2021/11/30 13:07:57;;;;;;;6.27;1.67;;;;;;;;;;4950437;29;20260;-53
2021/11/30 13:10:27;;;;;;;4.93;2.33;;;;;;;;;;4954509;28;20604;-54
2021/11/30 13:12:55;;;;;;;6.47;1.30;;;;;;;;;;4964724;28;20277;-53
2021/11/30 13:15:23;;;;;;;7.10;1.90;;;;;;;;;;4956128;28;20281;-53
2021/11/30 13:17:54;;;;;;;5.73;1.73;;;;;;;;;;4954810;28;20328;-53
2021/11/30 13:20:25;;;;;;;4.00;2.07;;;;;;;;;;4955090;28;20261;-53
2021/11/30 13:22:53;;;;;;;4.40;1.80;;;;;;;;;;4960319;28;20314;-53
2021/11/30 13:25:23;;;;;;;7.33;3.50;;;;;;;;;;4971897;28;20352;-54
2021/11/30 13:27:52;;;;;;;8.50;2.97;;;;;;;;;;4968197;28;20273;-54
2021/11/30 13:30:20;;;;;;;5.00;3.07;;;;;;;;;;4950130;29;20356;-53
2021/11/30 13:32:50;;;;;;;8.77;3.23;;;;;;;;;;4950359;28;20260;-53
2021/11/30 13:35:22;;;;;;;8.90;3.13;;;;;;;;;;4970290;28;20277;-53
2021/11/30 13:37:54;;;;;;;5.30;2.67;;;;;;;;;;4972960;28;20265;-54
2021/11/30 13:40:38;;;;;;;9.63;2.53;;;;;;;;;;4974142;28;20272;-53
2021/11/30 13:43:10;;;;;;;4.47;1.73;;;;;;;;;;4973538;28;20292;-54
2021/11/30 13:45:41;;;;;;;2.93;1.73;;;;;;;;;;4973662;28;20268;-53
2021/11/30 13:48:07;;;;;;;6.33;2.60;;;;;;;;;;4970271;28;20265;-54
2021/11/30 13:50:39;;;;;;;7.43;2.60;;;;;;;;;;4968754;28;20331;-53
2021/11/30 13:53:10;;;;;;;6.57;2.80;;;;;;;;;;4962043;28;20269;-56
2021/11/30 13:55:37;;;;;;;4.33;2.37;;;;;;;;;;4949603;29;20262;-56
2021/11/30 13:58:11;;;;;;;4.57;2.47;;;;;;;;;;4952262;28;20269;-57
2021/11/30 14:00:46;;;;;;;7.37;2.10;;;;;;;;;;4954563;29;20062;-56
2021/11/30 14:03:13;;;;;;;5.20;2.17;;;;;;;;;;4957907;28;20039;-56
2021/11/30 14:05:41;;;;;;;3.33;2.47;;;;;;;;;;4973976;28;20089;-56
2021/11/30 14:08:07;;;;;;;3.63;1.80;;;;;;;;;;4971834;28;20031;-56
2021/11/30 14:10:39;;;;;;;7.13;1.93;;;;;;;;;;4969410;28;20023;-57
2021/11/30 14:13:06;;;;;;;2.90;1.87;;;;;;;;;;4967854;28;20034;-56
2021/11/30 14:15:33;;;;;;;6.60;1.70;;;;;;;;;;4968478;28;20114;-56
2021/11/30 14:18:08;;;;;;;4.80;2.53;;;;;;;;;;4968744;28;20034;-56
2021/11/30 14:20:36;;;;;;;4.45;2.33;;;;;;;;;;4971605;28;20452;-56
2021/11/30 14:23:25;;;;;;;8.63;2.60;;;;;;;;;;4972961;28;20050;-56
2021/11/30 14:25:52;;;;;;;3.40;2.30;;;;;;;;;;4973262;28;20034;-56
2021/11/30 14:28:19;;;;;;;4.63;2.63;;;;;;;;;;4973289;28;20027;-56
2021/11/30 14:30:47;;;;;;;3.33;1.93;;;;;;;;;;4973586;28;20023;-56
2021/11/30 14:33:15;;;;;;;4.40;1.93;;;;;;;;;;4967758;28;21425;-56
2021/11/30 14:35:43;;;;;;;4.17;2.93;;;;;;;;;;4968464;28;20054;-57
2021/11/30 14:38:11;;;;;;;4.57;2.40;;;;;;;;;;4960404;28;20034;-56
2021/11/30 14:40:41;;;;;;;4.47;3.00;;;;;;;;;;4968473;28;20035;-56
2021/11/30 14:43:10;;;;;;;4.50;2.63;;;;;;;;;;4972574;28;20117;-57
2021/11/30 14:45:44;;;;;;;7.70;2.83;;;;;;;;;;4973014;28;20034;-56
2021/11/30 14:48:14;;;;;;;5.45;2.50;;;;;;;;;;4973051;28;20027;-57
2021/11/30 14:50:56;;;;;;;7.20;2.43;;;;;;;;;;4973058;28;20061;-57
2021/11/30 14:53:24;;;;;;;5.77;3.30;;;;;;;;;;4967610;28;20099;-57
2021/11/30 14:55:53;;;;;;;4.63;2.33;;;;;;;;;;4967998;28;20033;-57
2021/11/30 14:58:22;;;;;;;7.60;2.50;;;;;;;;;;4962705;28;20027;-57